createdAt,value
2023-04-04T00:00:51.511Z,3.60
2023-04-04T00:03:18.803Z,3.35
2023-04-04T00:05:45.788Z,3.15
2023-04-04T00:08:15.103Z,2.85
2023-04-04T00:10:42.183Z,2.30
2023-04-04T00:13:09.754Z,3.13
2023-04-04T00:15:39.211Z,4.05
2023-04-04T00:18:06.402Z,4.05
2023-04-04T00:20:35.916Z,3.97
2023-04-04T00:23:12.363Z,4.50
2023-04-04T00:25:39.397Z,3.97
2023-04-04T00:28:06.676Z,3.80
2023-04-04T00:30:34.986Z,3.72
2023-04-04T00:33:05.010Z,3.70
2023-04-04T00:35:34.338Z,3.40
2023-04-04T00:38:04.145Z,3.03
2023-04-04T00:40:33.315Z,3.75
2023-04-04T00:43:25.219Z,3.70
2023-04-04T00:46:35.268Z,3.22
2023-04-04T00:49:38.014Z,3.17
2023-04-04T00:52:20.461Z,3.20
2023-04-04T00:55:05.289Z,3.35
2023-04-04T00:57:48.679Z,3.10
2023-04-04T01:00:22.694Z,3.30
2023-04-04T01:02:57.535Z,3.20
2023-04-04T01:05:41.112Z,3.45
2023-04-04T01:08:32.541Z,4.40
2023-04-04T01:11:05.287Z,5.10
2023-04-04T01:13:33.643Z,3.53
2023-04-04T01:16:01.847Z,3.38
2023-04-04T01:18:29.393Z,2.97
2023-04-04T01:21:04.877Z,3.30
2023-04-04T01:24:10.217Z,3.10
2023-04-04T01:26:53.610Z,3.10
2023-04-04T01:29:21.157Z,3.50
2023-04-04T01:31:59.616Z,4.47
2023-04-04T01:34:54.654Z,3.92
2023-04-04T01:37:35.862Z,4.38
2023-04-04T01:40:17.154Z,5.07
2023-04-04T01:42:48.097Z,4.97
2023-04-04T01:45:15.736Z,4.40
2023-04-04T01:47:44.549Z,4.20
2023-04-04T01:50:18.655Z,4.22
2023-04-04T01:52:45.491Z,3.72
2023-04-04T01:55:12.510Z,3.80
2023-04-04T01:57:39.472Z,3.60
2023-04-04T02:00:07.413Z,3.97
2023-04-04T02:02:44.043Z,4.05
2023-04-04T02:05:19.984Z,3.72
2023-04-04T02:07:50.865Z,3.42
2023-04-04T02:10:30.575Z,3.42
2023-04-04T02:12:58.219Z,4.60
2023-04-04T02:15:28.279Z,4.95
2023-04-04T02:17:57.178Z,4.75
2023-04-04T02:20:24.316Z,4.88
2023-04-04T02:22:53.870Z,4.70
2023-04-04T02:25:28.040Z,4.30
2023-04-04T02:27:58.747Z,5.15
2023-04-04T02:30:38.020Z,5.32
2023-04-04T02:33:08.552Z,5.05
2023-04-04T02:35:36.098Z,5.60
2023-04-04T02:38:03.174Z,5.57
2023-04-04T02:40:41.611Z,5.18
2023-04-04T02:43:09.173Z,4.53
2023-04-04T02:45:38.925Z,4.30
2023-04-04T02:48:20.103Z,4.18
2023-04-04T02:50:49.729Z,4.75
2023-04-04T02:53:21.683Z,4.22
2023-04-04T02:55:51.233Z,4.37
2023-04-04T02:58:18.271Z,3.40
2023-04-04T03:00:48.379Z,4.30
2023-04-04T03:03:15.876Z,3.95
2023-04-04T03:05:45.848Z,4.55
2023-04-04T03:08:12.834Z,4.15
2023-04-04T03:10:48.141Z,4.63
2023-04-04T03:13:17.305Z,4.50
2023-04-04T03:15:47.466Z,4.32
2023-04-04T03:18:15.525Z,4.97
2023-04-04T03:20:42.724Z,5.13
2023-04-04T03:23:10.950Z,5.60
2023-04-04T03:25:37.743Z,4.97
2023-04-04T03:28:11.419Z,5.00
2023-04-04T03:30:40.596Z,4.28
2023-04-04T03:33:10.486Z,4.30
2023-04-04T03:35:39.851Z,4.63
2023-04-04T03:38:11.374Z,3.88
2023-04-04T03:40:38.549Z,4.13
2023-04-04T03:43:38.427Z,4.65
2023-04-04T03:46:12.800Z,4.55
2023-04-04T03:48:44.961Z,4.47
2023-04-04T03:51:14.268Z,5.25
2023-04-04T03:53:47.722Z,4.50
2023-04-04T03:56:14.704Z,5.95
2023-04-04T03:58:46.552Z,6.30
2023-04-04T04:01:21.247Z,5.10
2023-04-04T04:04:02.181Z,5.45
2023-04-04T04:06:33.287Z,5.43
2023-04-04T04:09:02.765Z,5.15
2023-04-04T04:11:36.296Z,5.40
2023-04-04T04:14:06.123Z,5.45
2023-04-04T04:16:47.072Z,6.60
2023-04-04T04:19:20.177Z,6.47
2023-04-04T04:21:48.144Z,6.53
2023-04-04T04:24:15.068Z,7.10
2023-04-04T04:26:42.132Z,7.65
2023-04-04T04:29:09.405Z,7.38
2023-04-04T04:31:39.371Z,9.65
2023-04-04T04:34:08.832Z,8.52
2023-04-04T04:36:37.746Z,6.55
2023-04-04T04:43:29.003Z,5.15
2023-04-04T04:46:16.202Z,6.68
2023-04-04T04:48:45.532Z,7.28
2023-04-04T04:54:06.779Z,6.82
2023-04-04T04:56:39.898Z,6.28
2023-04-04T04:59:39.602Z,6.03
2023-04-04T05:02:19.075Z,5.63
2023-04-04T05:05:05.432Z,5.50
2023-04-04T05:07:39.114Z,6.03
2023-04-04T05:10:13.257Z,6.13
2023-04-04T05:12:45.114Z,5.40
2023-04-04T05:15:31.357Z,5.57
2023-04-04T05:18:11.236Z,5.90
2023-04-04T05:20:53.248Z,5.65
2023-04-04T05:23:28.151Z,5.60
2023-04-04T05:26:19.692Z,5.73
2023-04-04T05:28:52.774Z,5.57
2023-04-04T05:31:33.856Z,6.35
2023-04-04T05:34:21.145Z,5.22
2023-04-04T05:36:51.200Z,4.75
2023-04-04T05:39:18.556Z,4.75
2023-04-04T05:42:00.534Z,4.82
2023-04-04T05:44:31.388Z,5.05
2023-04-04T05:47:01.913Z,6.15
2023-04-04T05:49:28.955Z,4.40
2023-04-04T05:51:59.499Z,4.50
2023-04-04T05:55:01.610Z,4.10
2023-04-04T05:57:33.319Z,4.13
2023-04-04T06:00:23.680Z,5.00
2023-04-04T06:03:04.038Z,3.83
2023-04-04T06:05:46.201Z,3.85
2023-04-04T06:08:52.989Z,5.88
2023-04-04T06:11:30.950Z,4.63
2023-04-04T06:14:06.318Z,5.00
2023-04-04T06:16:33.527Z,4.68
2023-04-04T06:19:01.661Z,4.70
2023-04-04T06:21:36.327Z,4.45
2023-04-04T06:24:03.790Z,4.47
2023-04-04T06:26:34.609Z,5.60
2023-04-04T06:29:07.073Z,5.18
2023-04-04T06:31:56.226Z,4.63
2023-04-04T06:34:34.294Z,4.22
2023-04-04T06:37:12.992Z,3.80
2023-04-04T06:40:05.888Z,4.30
2023-04-04T06:42:53.549Z,4.60
2023-04-04T06:45:28.486Z,3.60
2023-04-04T06:47:57.012Z,4.35
2023-04-04T06:50:46.926Z,4.90
2023-04-04T06:53:17.576Z,5.00
2023-04-04T06:55:44.552Z,5.20
2023-04-04T06:58:16.393Z,5.63
2023-04-04T07:00:57.825Z,5.68
2023-04-04T07:04:16.975Z,4.95
2023-04-04T07:07:59.333Z,5.25
2023-04-04T07:19:00.162Z,4.00
2023-04-04T07:22:22.217Z,4.72
2023-04-04T07:28:19.002Z,5.28
2023-04-04T07:32:23.276Z,5.50
2023-04-04T07:39:16.018Z,6.25
2023-04-04T07:42:11.182Z,5.60
2023-04-04T07:48:08.257Z,6.40
2023-04-04T07:52:25.182Z,5.78
2023-04-04T08:05:45.752Z,5.18
2023-04-04T08:08:13.842Z,6.28
2023-04-04T08:11:48.134Z,5.63
2023-04-04T08:13:53.920Z,7.05
2023-04-04T08:16:29.688Z,6.30
2023-04-04T08:19:02.358Z,6.32
2023-04-04T08:25:19.280Z,6.45
2023-04-04T08:29:14.248Z,6.63
2023-04-04T08:35:06.451Z,7.13
2023-04-04T08:37:57.452Z,7.05
2023-04-04T08:45:35.863Z,5.57
2023-04-04T08:48:42.627Z,6.97
2023-04-04T08:51:44.856Z,6.88
2023-04-04T08:54:34.212Z,6.68
2023-04-04T08:57:13.157Z,6.03
2023-04-04T09:00:34.828Z,5.20
2023-04-04T09:03:25.981Z,5.60
2023-04-04T09:06:46.633Z,5.93
2023-04-04T09:10:57.151Z,6.53
2023-04-04T09:16:01.483Z,6.15
2023-04-04T09:18:39.526Z,6.97
2023-04-04T09:21:19.063Z,6.97
2023-04-04T09:24:03.254Z,7.53
2023-04-04T09:26:51.791Z,6.85
2023-04-04T09:29:50.169Z,7.90
2023-04-04T09:32:25.407Z,6.28
2023-04-04T09:34:58.829Z,6.57
2023-04-04T09:37:34.579Z,6.32
2023-04-04T09:40:12.714Z,6.85
2023-04-04T09:42:40.541Z,5.95
2023-04-04T09:45:11.691Z,6.07
2023-04-04T09:47:57.963Z,6.40
2023-04-04T09:50:29.994Z,6.47
2023-04-04T09:53:02.038Z,5.85
2023-04-04T09:56:29.592Z,6.15
2023-04-04T10:08:33.866Z,6.63
2023-04-04T10:13:57.684Z,5.10
2023-04-04T10:16:49.636Z,6.30
2023-04-04T10:19:41.800Z,5.72
2023-04-04T10:22:56.528Z,5.05
2023-04-04T10:25:24.566Z,5.55
2023-04-04T10:28:08.906Z,5.43
2023-04-04T10:31:26.800Z,6.10
2023-04-04T10:34:40.497Z,6.00
2023-04-04T10:37:25.000Z,6.18
2023-04-04T10:40:04.994Z,5.00
2023-04-04T10:42:44.593Z,5.60
2023-04-04T10:45:31.358Z,4.82
2023-04-04T10:48:01.049Z,5.20
2023-04-04T10:50:28.433Z,5.60
2023-04-04T10:52:58.456Z,4.30
2023-04-04T10:55:28.369Z,4.32
2023-04-04T11:01:31.967Z,5.10
2023-04-04T11:04:31.343Z,5.15
2023-04-04T11:07:17.698Z,4.93
2023-04-04T11:09:55.853Z,5.55
2023-04-04T11:13:11.387Z,5.22
2023-04-04T11:16:13.708Z,4.65
2023-04-04T11:18:47.971Z,4.57
2023-04-04T11:21:48.172Z,4.80
2023-04-04T11:24:21.063Z,5.18
2023-04-04T11:27:00.321Z,5.55
2023-04-04T11:29:56.907Z,4.45
2023-04-04T11:32:52.800Z,4.80
2023-04-04T11:37:09.078Z,4.32
2023-04-04T11:38:53.666Z,5.13
2023-04-04T11:43:05.277Z,4.28
2023-04-04T11:55:24.169Z,4.32
2023-04-04T11:58:02.709Z,4.55
2023-04-04T12:01:05.579Z,4.50
2023-04-04T12:04:38.961Z,4.15
2023-04-04T12:08:05.074Z,4.10
2023-04-04T12:10:41.994Z,4.43
2023-04-04T12:14:13.566Z,4.22
2023-04-04T12:17:16.064Z,4.55
2023-04-04T12:20:09.516Z,4.70
2023-04-04T12:23:24.415Z,4.63
2023-04-04T12:29:48.221Z,5.28
2023-04-04T12:32:46.812Z,6.07
2023-04-04T12:35:31.372Z,5.22
2023-04-04T12:38:24.471Z,5.60
2023-04-04T12:42:01.714Z,5.70
2023-04-04T12:45:13.476Z,6.75
2023-04-04T12:54:50.978Z,6.57
2023-04-04T12:57:35.482Z,6.40
2023-04-04T13:00:08.788Z,6.25
2023-04-04T13:02:46.792Z,5.25
2023-04-04T13:05:24.097Z,5.75
2023-04-04T13:07:51.921Z,5.40
2023-04-04T13:10:46.355Z,5.47
2023-04-04T13:13:52.072Z,5.72
2023-04-04T13:16:36.769Z,4.55
2023-04-04T13:19:44.406Z,4.50
2023-04-04T13:26:51.516Z,4.18
2023-04-04T13:30:03.585Z,4.80
2023-04-04T13:36:48.354Z,4.75
2023-04-04T13:39:54.060Z,4.55
2023-04-04T13:47:03.167Z,5.18
2023-04-04T13:49:41.068Z,4.15
2023-04-04T14:03:54.778Z,5.35
2023-04-04T14:06:24.192Z,5.68
2023-04-04T14:08:58.379Z,4.40
2023-04-04T14:11:36.315Z,4.25
2023-04-04T14:16:38.777Z,3.88
2023-04-04T14:19:16.129Z,4.50
2023-04-04T14:21:45.726Z,4.15
2023-04-04T14:24:21.973Z,4.53
2023-04-04T14:27:19.132Z,4.13
2023-04-04T14:29:46.873Z,4.25
2023-04-04T14:32:35.090Z,4.88
2023-04-04T14:35:23.901Z,4.43
2023-04-04T14:38:47.989Z,4.82
2023-04-04T14:45:01.549Z,4.18
2023-04-04T14:47:59.442Z,3.42
2023-04-04T14:54:02.844Z,3.90
2023-04-04T14:57:46.939Z,4.38
2023-04-04T15:00:30.265Z,3.90
2023-04-04T15:03:31.982Z,5.00
2023-04-04T15:06:45.961Z,4.35
2023-04-04T15:09:35.103Z,5.63
2023-04-04T15:12:05.937Z,5.25
2023-04-04T15:15:01.768Z,6.05
2023-04-04T15:17:38.765Z,7.38
2023-04-04T15:23:37.291Z,5.00
2023-04-04T15:26:06.949Z,6.15
2023-04-04T15:28:36.472Z,6.38
2023-04-04T15:31:36.974Z,6.40
2023-04-04T15:34:42.775Z,6.88
2023-04-04T15:37:12.861Z,6.38
2023-04-04T15:39:52.357Z,6.45
2023-04-04T15:42:25.668Z,6.38
2023-04-04T15:45:13.301Z,5.25
2023-04-04T15:48:43.409Z,4.95
2023-04-04T15:51:42.718Z,4.57
2023-04-04T15:55:28.731Z,4.75
2023-04-04T16:20:05.694Z,3.53
2023-04-04T16:22:44.378Z,3.53
2023-04-04T16:25:24.040Z,4.00
2023-04-04T16:27:56.049Z,3.60
2023-04-04T16:30:44.921Z,4.30
2023-04-04T17:06:45.780Z,4.13
2023-04-04T17:09:37.597Z,4.28
2023-04-04T17:12:51.911Z,3.78
2023-04-04T17:16:34.614Z,4.40
2023-04-04T17:19:15.631Z,4.57
2023-04-04T17:41:40.484Z,4.25
2023-04-04T18:04:14.851Z,5.55
2023-04-04T18:20:14.301Z,5.05
2023-04-04T18:23:10.223Z,4.50
2023-04-04T18:26:03.517Z,4.80
2023-04-04T18:31:39.811Z,5.43
2023-04-04T18:34:18.994Z,5.03
2023-04-04T18:40:46.052Z,5.22
2023-04-04T18:43:14.158Z,5.10
2023-04-04T18:46:11.033Z,4.68
2023-04-04T18:49:02.551Z,5.90
2023-04-04T18:51:55.151Z,6.00
2023-04-04T18:57:50.660Z,5.45
2023-04-04T18:58:22.738Z,5.80
2023-04-04T19:00:44.542Z,5.47
2023-04-04T19:10:18.943Z,5.40
2023-04-04T19:13:10.643Z,6.28
2023-04-04T19:16:34.965Z,6.30
2023-04-04T19:23:13.566Z,6.47
2023-04-04T19:29:53.554Z,6.63
2023-04-04T19:40:57.236Z,7.22
2023-04-04T19:42:32.677Z,6.40
2023-04-04T19:48:01.568Z,6.28
2023-04-04T19:51:13.087Z,7.32
2023-04-04T19:54:09.834Z,7.53
2023-04-04T20:00:37.060Z,8.40
2023-04-04T20:03:49.568Z,7.85
2023-04-04T20:07:09.211Z,7.53
2023-04-04T20:09:58.510Z,7.90
2023-04-04T20:12:52.700Z,7.72
2023-04-04T20:16:31.040Z,7.28
2023-04-04T20:19:24.268Z,7.53
2023-04-04T20:22:10.589Z,7.32
2023-04-04T20:24:50.210Z,6.72
2023-04-04T20:27:27.890Z,6.88
2023-04-04T20:30:04.670Z,7.88
2023-04-04T20:32:42.182Z,7.35
2023-04-04T20:35:32.434Z,6.63
2023-04-04T20:38:14.225Z,7.13
2023-04-04T20:40:46.513Z,6.93
2023-04-04T20:46:29.152Z,5.47
2023-04-04T20:49:28.693Z,7.43
2023-04-04T20:52:23.386Z,6.25
2023-04-04T20:54:57.296Z,6.15
2023-04-04T20:57:28.850Z,6.20
2023-04-04T21:01:00.475Z,5.75
2023-04-04T21:03:37.420Z,6.57
2023-04-04T21:06:13.134Z,8.10
2023-04-04T21:08:49.245Z,7.35
2023-04-04T21:11:23.227Z,7.13
2023-04-04T21:13:57.366Z,6.70
2023-04-04T21:16:29.941Z,6.00
2023-04-04T21:18:59.211Z,7.55
2023-04-04T21:21:30.555Z,6.32
2023-04-04T21:24:06.454Z,6.68
2023-04-04T21:26:41.270Z,6.60
2023-04-04T21:29:31.109Z,6.03
2023-04-04T21:32:00.615Z,6.13
2023-04-04T21:37:30.354Z,5.93
2023-04-04T21:40:56.404Z,6.07
2023-04-04T21:46:01.591Z,5.32
2023-04-04T21:49:00.638Z,5.28
2023-04-04T21:55:01.003Z,5.60
2023-04-04T21:57:30.556Z,5.10
2023-04-04T22:00:01.230Z,5.47
2023-04-04T22:02:29.588Z,6.15
2023-04-04T22:04:59.943Z,6.05
2023-04-04T22:07:26.942Z,5.00
2023-04-04T22:09:55.103Z,5.97
2023-04-04T22:12:23.352Z,5.35
2023-04-04T22:14:55.752Z,5.68
2023-04-04T22:17:25.715Z,5.35
2023-04-04T22:19:59.686Z,5.15
2023-04-04T22:22:37.568Z,5.30
2023-04-04T22:25:05.242Z,6.50
2023-04-04T22:27:38.959Z,5.47
2023-04-04T22:30:08.689Z,5.82
2023-04-04T22:32:39.384Z,5.65
2023-04-04T22:35:11.775Z,5.10
2023-04-04T22:37:41.184Z,5.80
2023-04-04T22:40:14.915Z,5.00
2023-04-04T22:42:41.974Z,5.88
2023-04-04T22:45:09.307Z,5.28
2023-04-04T22:47:36.362Z,5.38
2023-04-04T22:50:05.636Z,6.00
2023-04-04T22:52:34.736Z,5.70
2023-04-04T22:55:05.035Z,5.55
2023-04-04T22:57:34.285Z,5.57
2023-04-04T23:00:06.127Z,6.40
2023-04-04T23:02:33.092Z,6.10
2023-04-04T23:05:00.166Z,5.35
2023-04-04T23:07:29.797Z,5.63
2023-04-04T23:09:56.759Z,5.82
2023-04-04T23:12:26.254Z,6.22
2023-04-04T23:14:53.353Z,6.75
2023-04-04T23:17:20.588Z,6.43
2023-04-04T23:19:47.522Z,5.80
2023-04-04T23:22:15.370Z,5.88
2023-04-04T23:24:44.941Z,6.03
2023-04-04T23:27:12.978Z,5.97
2023-04-04T23:29:41.377Z,6.57
2023-04-04T23:32:12.496Z,5.53
2023-04-04T23:34:41.892Z,6.43
2023-04-04T23:37:11.606Z,5.63
2023-04-04T23:39:42.969Z,5.32
2023-04-04T23:42:12.712Z,5.10
2023-04-04T23:44:42.904Z,5.90
2023-04-04T23:47:11.853Z,5.30
2023-04-04T23:49:41.498Z,4.97
2023-04-04T23:52:15.265Z,4.97
2023-04-04T23:54:49.358Z,4.43
2023-04-04T23:57:24.499Z,5.72
